Impacts TAF Board INFO
FOR SITUATIONAL AWARENESS. NOT TO BE USED FOR FLIGHT PLANNING PURPOSES.
IDs:

KBOS - Boston/Logan Intl, MA, US

Issued at 1124 UTC 16 Jan 2018
Updated at 1504 UTC 16 Jan 2018
Potential Impact None Slight Moderate High
Time1454Z 16/16Z 16/17Z 16/18Z 16/19Z 16/20Z 16/21Z 16/22Z 16/23Z 17/00Z 17/01Z 17/02Z 17/03Z 17/04Z>>
Type OBS PRVL PRVL PRVL PRVL PRVL PRVL PRVL PRVL PRVL PRVL PRVL PRVL PRVL
VIS 10 >6 >6 >6 >6 >6 >6 >6 >6 >6 >6 >6 >6 >6
CIG 38 35 35 35 35 35 35 35 35 35 35 35 35 35
Cover BKN BKN BKN BKN BKN OVC OVC OVC OVC OVC OVC OVC OVC OVC
FltCat VFR VFR VFR VFR VFR VFR VFR VFR VFR VFR VFR VFR VFR VFR
WX -- -- -- -- -- -- -- -- -- -- -- -- -- --
WDir VRB VRB VRB VRB VRB 180 180 180 180 180 180 180 180 180
WSpd 0 0 0 0 0 5 5 5 5 5 5 5 5 5
WGst -- -- -- -- -- -- -- -- -- -- -- -- -- --

Raw TAF
KBOS 161124Z 1612/1718 34005KT P6SM BKN030
  FM161600 00000KT P6SM BKN035
  FM162000 18005KT P6SM OVC035
  FM170700 16004KT 2SM -SN OVC010
  FM171000 04005KT 1SM -SN OVC008
  FM171200 04005KT 1/2SM SN OVC003
  FM171700 03007KT 1 1/2SM -SNRA OVC003


Raw METAR
KBOS 161454Z 00000KT 10SM BKN038 BKN250 M03/M07 A3054 RMK AO2 SLP341 T10281067 53003
KBOS 161354Z 00000KT 10SM FEW120 FEW250 M04/M07 A3053 RMK AO2 SLP339 T10391067
KBOS 161254Z 06005KT 10SM FEW025 SCT120 M06/M09 A3052 RMK AO2 SLP335 T10561089

METAR Board
Radar Display
Forecast Discussion

FOR SITUATIONAL AWARENESS. NOT TO BE USED FOR FLIGHT PLANNING PURPOSES.